Suehiro Maru No.8 — JK5423 — position and weather

sailwx.info

Track history (hours):
 
Tides and Currents Weather Stations Pressure Air Temp Water Temp Dewpoint Dewpoint Depression Visibility Wind Speed Wind Dir Waves Ship Positions

Suehiro Maru No.8

Last reported at 2014-Jul-28 03:34 UTC. Time now 2014-Jul-28 04:13 UTC.
Position N 35°24' E 139°38'.

Length 88 m; draft 3.2 m.

Type: Cargo ship. MMSI: 431400446.

Date/timePositionNaut miles runAvg speedWind from/ knotsBaromVisibWave heightAir tempDewpointWater temp
2014-Jul-28 03:34N 35°24' E 139°38'0 0.0
2014-Jul-28 02:33N 35°24' E 139°38'0 0.0
2014-Jul-28 01:33N 35°24' E 139°38'0 0.0
2014-Jul-28 00:33N 35°24' E 139°38'0 0.0
2014-Jul-27 23:34N 35°24' E 139°38'1 1.0
2014-Jul-27 22:34N 35°24' E 139°39'1111.3
2014-Jul-27 21:34N 35°15' E 139°47'1212.0
2014-Jul-27 20:33N 35°03' E 139°47'4 4.5
2014-Jul-27 19:33N 34°60' E 139°50'0 0.0
2014-Jul-27 18:33N 34°60' E 139°50'0 0.0
2014-Jul-27 17:33N 34°60' E 139°50'0 0.1
2014-Jul-27 16:33N 34°60' E 139°50'0 0.1
2014-Jul-27 15:33N 34°60' E 139°50'0 0.0
2014-Jul-27 14:33N 34°60' E 139°50'0 0.0
2014-Jul-27 13:33N 34°60' E 139°50'0 0.1
2014-Jul-27 12:33N 34°60' E 139°50'0 0.1
2014-Jul-27 11:33N 34°60' E 139°51'0 0.0
2014-Jul-27 10:33N 34°60' E 139°51'0 0.0
2014-Jul-27 09:33N 34°60' E 139°51'9 9.3
2014-Jul-27 08:33N 34°58' E 139°39'1313.2
2014-Jul-27 07:33N 34°52' E 139°25'355 9.0
2014-Jul-25 16:04N 33°48' E 132°22'2114.1
2014-Jul-25 14:33N 34°06' E 132°36'  
2014-Jul-23 10:04N 34°47' E 139°09'811.4
2014-Jul-23 09:20N 34°53' E 139°16'911.1
2014-Jul-23 08:32N 34°59' E 139°25'1111.2
2014-Jul-23 07:33N 35°05' E 139°36'1211.5
2014-Jul-23 06:33N 35°13' E 139°46'1111.3
2014-Jul-23 05:33N 35°24' E 139°43'9 9.5
2014-Jul-23 04:33N 35°31' E 139°50'3 3.3
2014-Jul-23 03:33N 35°34' E 139°51'4 3.9
2014-Jul-23 02:33N 35°37' E 139°49'0 0.0
2014-Jul-23 01:33N 35°37' E 139°49'0 0.0
2014-Jul-23 00:33N 35°37' E 139°49'0 0.0
2014-Jul-22 23:33N 35°37' E 139°49'0 0.0
2014-Jul-22 22:33N 35°37' E 139°49'4 3.6
2014-Jul-22 21:33N 35°35' E 139°52'1 0.6
2014-Jul-22 20:28N 35°34' E 139°52'0 0.1
2014-Jul-22 19:31N 35°35' E 139°52'0 0.0
2014-Jul-22 18:31N 35°35' E 139°52'0 0.0
2014-Jul-22 17:28N 35°35' E 139°52'0 0.1
2014-Jul-22 16:32N 35°35' E 139°52'1110.9
2014-Jul-22 15:34N 35°25' E 139°47'1110.9
2014-Jul-22 14:34N 35°14' E 139°47'1312.5
2014-Jul-22 13:34N 35°01' E 139°47'3 2.8
2014-Jul-22 12:34N 34°60' E 139°50'0 0.0
2014-Jul-22 11:34N 34°60' E 139°50'0 0.0
2014-Jul-22 10:33N 34°60' E 139°50'0 0.0
2014-Jul-22 09:34N 34°60' E 139°50'0 0.0
2014-Jul-22 08:34N 34°60' E 139°50'0 0.0
2014-Jul-22 07:34N 34°60' E 139°50'0 0.0
2014-Jul-22 06:34N 34°60' E 139°50'0 0.0
2014-Jul-22 05:34N 34°60' E 139°50'0 0.0
2014-Jul-22 04:33N 34°60' E 139°50'0 0.0
2014-Jul-22 03:33N 34°60' E 139°50'0 0.0
2014-Jul-22 02:34N 34°60' E 139°50'0 0.0
2014-Jul-22 01:33N 34°60' E 139°50'0 0.0
2014-Jul-22 00:33N 34°60' E 139°50'0 0.0
2014-Jul-21 23:32N 34°60' E 139°50'0 0.0
2014-Jul-21 22:32N 34°60' E 139°50'0 0.0
2014-Jul-21 21:33N 34°60' E 139°50'0 0.0
2014-Jul-21 20:33N 34°60' E 139°50'0 0.0
2014-Jul-21 20:18N 34°60' E 139°50'6 7.5
2014-Jul-21 19:33N 34°60' E 139°44'15 7.7
2014-Jul-21 17:33N 34°56' E 140°02'1413.0
2014-Jul-21 16:27N 35°03' E 140°17'1613.0
2014-Jul-21 15:15N 35°14' E 140°31'912.6
2014-Jul-21 14:30N 35°22' E 140°37'1212.5
2014-Jul-21 13:33N 35°32' E 140°45'1313.1
2014-Jul-21 12:33N 35°42' E 140°55'1312.5
2014-Jul-21 11:33N 35°55' E 140°58'1512.0
2014-Jul-21 10:17N 36°09' E 141°03'  
Track history (hours):
 
Tides and Currents Weather Stations Pressure Air Temp Water Temp Dewpoint Dewpoint Depression Visibility Wind Speed Wind Dir Waves Ship Positions

Suehiro Maru No.8

Last reported at 2014-Jul-28 03:34 UTC. Time now 2014-Jul-28 04:13 UTC.
Position N 35°24' E 139°38'.

Length 88 m; draft 3.2 m.

Type: Cargo ship. MMSI: 431400446.

Date/timePositionNaut miles runAvg speedWind from/ knotsBaromVisibWave heightAir tempDewpointWater temp
2014-Jul-28 03:34N 35°24' E 139°38'0 0.0
2014-Jul-28 02:33N 35°24' E 139°38'0 0.0
2014-Jul-28 01:33N 35°24' E 139°38'0 0.0
2014-Jul-28 00:33N 35°24' E 139°38'0 0.0
2014-Jul-27 23:34N 35°24' E 139°38'1 1.0
2014-Jul-27 22:34N 35°24' E 139°39'1111.3
2014-Jul-27 21:34N 35°15' E 139°47'1212.0
2014-Jul-27 20:33N 35°03' E 139°47'4 4.5
2014-Jul-27 19:33N 34°60' E 139°50'0 0.0
2014-Jul-27 18:33N 34°60' E 139°50'0 0.0
2014-Jul-27 17:33N 34°60' E 139°50'0 0.1
2014-Jul-27 16:33N 34°60' E 139°50'0 0.1
2014-Jul-27 15:33N 34°60' E 139°50'0 0.0
2014-Jul-27 14:33N 34°60' E 139°50'0 0.0
2014-Jul-27 13:33N 34°60' E 139°50'0 0.1
2014-Jul-27 12:33N 34°60' E 139°50'0 0.1
2014-Jul-27 11:33N 34°60' E 139°51'0 0.0
2014-Jul-27 10:33N 34°60' E 139°51'0 0.0
2014-Jul-27 09:33N 34°60' E 139°51'9 9.3
2014-Jul-27 08:33N 34°58' E 139°39'1313.2
2014-Jul-27 07:33N 34°52' E 139°25'355 9.0
2014-Jul-25 16:04N 33°48' E 132°22'2114.1
2014-Jul-25 14:33N 34°06' E 132°36'  
2014-Jul-23 10:04N 34°47' E 139°09'811.4
2014-Jul-23 09:20N 34°53' E 139°16'911.1
2014-Jul-23 08:32N 34°59' E 139°25'1111.2
2014-Jul-23 07:33N 35°05' E 139°36'1211.5
2014-Jul-23 06:33N 35°13' E 139°46'1111.3
2014-Jul-23 05:33N 35°24' E 139°43'9 9.5
2014-Jul-23 04:33N 35°31' E 139°50'3 3.3
2014-Jul-23 03:33N 35°34' E 139°51'4 3.9
2014-Jul-23 02:33N 35°37' E 139°49'0 0.0
2014-Jul-23 01:33N 35°37' E 139°49'0 0.0
2014-Jul-23 00:33N 35°37' E 139°49'0 0.0
2014-Jul-22 23:33N 35°37' E 139°49'0 0.0
2014-Jul-22 22:33N 35°37' E 139°49'4 3.6
2014-Jul-22 21:33N 35°35' E 139°52'1 0.6
2014-Jul-22 20:28N 35°34' E 139°52'0 0.1
2014-Jul-22 19:31N 35°35' E 139°52'0 0.0
2014-Jul-22 18:31N 35°35' E 139°52'0 0.0
2014-Jul-22 17:28N 35°35' E 139°52'0 0.1
2014-Jul-22 16:32N 35°35' E 139°52'1110.9
2014-Jul-22 15:34N 35°25' E 139°47'1110.9
2014-Jul-22 14:34N 35°14' E 139°47'1312.5
2014-Jul-22 13:34N 35°01' E 139°47'3 2.8
2014-Jul-22 12:34N 34°60' E 139°50'0 0.0
2014-Jul-22 11:34N 34°60' E 139°50'0 0.0
2014-Jul-22 10:33N 34°60' E 139°50'0 0.0
2014-Jul-22 09:34N 34°60' E 139°50'0 0.0
2014-Jul-22 08:34N 34°60' E 139°50'0 0.0
2014-Jul-22 07:34N 34°60' E 139°50'0 0.0
2014-Jul-22 06:34N 34°60' E 139°50'0 0.0
2014-Jul-22 05:34N 34°60' E 139°50'0 0.0
2014-Jul-22 04:33N 34°60' E 139°50'0 0.0
2014-Jul-22 03:33N 34°60' E 139°50'0 0.0
2014-Jul-22 02:34N 34°60' E 139°50'0 0.0
2014-Jul-22 01:33N 34°60' E 139°50'0 0.0
2014-Jul-22 00:33N 34°60' E 139°50'0 0.0
2014-Jul-21 23:32N 34°60' E 139°50'0 0.0
2014-Jul-21 22:32N 34°60' E 139°50'0 0.0
2014-Jul-21 21:33N 34°60' E 139°50'0 0.0
2014-Jul-21 20:33N 34°60' E 139°50'0 0.0
2014-Jul-21 20:18N 34°60' E 139°50'6 7.5
2014-Jul-21 19:33N 34°60' E 139°44'15 7.7
2014-Jul-21 17:33N 34°56' E 140°02'1413.0
2014-Jul-21 16:27N 35°03' E 140°17'1613.0
2014-Jul-21 15:15N 35°14' E 140°31'912.6
2014-Jul-21 14:30N 35°22' E 140°37'1212.5
2014-Jul-21 13:33N 35°32' E 140°45'1313.1
2014-Jul-21 12:33N 35°42' E 140°55'1312.5
2014-Jul-21 11:33N 35°55' E 140°58'1512.0
2014-Jul-21 10:17N 36°09' E 141°03'  

Dump ship's entire track history